createdAt,value
2022-09-12T00:05:48.033Z,99334.75
2022-09-12T00:11:49.857Z,99283.81
2022-09-12T00:17:51.953Z,99335.25
2022-09-12T00:23:54.117Z,99337.13
2022-09-12T00:29:55.935Z,99320.25
2022-09-12T00:35:57.785Z,99344.22
2022-09-12T00:41:59.709Z,99343.59
2022-09-12T00:48:04.695Z,99191.84
2022-09-12T00:54:14.559Z,99260.41
2022-09-12T01:00:38.817Z,99247.44
2022-09-12T01:06:43.460Z,99354.84
2022-09-12T01:12:45.815Z,99255.63
2022-09-12T01:33:13.217Z,99361.13
2022-09-12T01:52:51.216Z,99358.28
2022-09-12T01:59:22.596Z,99286.97
2022-09-12T02:18:48.830Z,99321.06
2022-09-12T02:24:55.788Z,99151.03
2022-09-12T02:37:52.047Z,99355.16
2022-09-12T02:43:54.198Z,99308.16
2022-09-12T02:49:57.278Z,99353.34
2022-09-12T02:55:59.401Z,99367.16
2022-09-12T03:02:16.470Z,99355.44
2022-09-12T03:08:27.411Z,99362.31
2022-09-12T03:14:53.006Z,99350.00
2022-09-12T03:21:28.369Z,99371.53
2022-09-12T03:27:49.779Z,99371.13
2022-09-12T03:40:08.643Z,99371.13
2022-09-12T03:46:11.969Z,99343.50
2022-09-12T03:52:13.715Z,99326.16
2022-09-12T03:58:15.576Z,99348.13
2022-09-12T04:04:17.480Z,99375.72
2022-09-12T04:10:19.462Z,99292.31
2022-09-12T04:16:24.989Z,99386.81
2022-09-12T04:22:27.266Z,99366.06
2022-09-12T04:28:30.285Z,99387.66
2022-09-12T04:34:32.655Z,99360.03
2022-09-12T04:40:34.474Z,99396.44
2022-09-12T04:46:39.453Z,99348.28
2022-09-12T04:52:42.424Z,99382.38
2022-09-12T04:58:44.456Z,99409.19
2022-09-12T05:04:47.090Z,99361.69
2022-09-12T05:10:48.924Z,99366.72
2022-09-12T05:16:50.747Z,99360.25
2022-09-12T05:22:52.585Z,99411.91
2022-09-12T05:28:55.301Z,99420.09
2022-09-12T05:34:57.088Z,99381.38
2022-09-12T05:41:17.491Z,99342.06
2022-09-12T05:47:20.912Z,99396.44
2022-09-12T05:53:29.992Z,99331.16
2022-09-12T05:59:35.162Z,99396.78
2022-09-12T06:11:59.080Z,99316.09
2022-09-12T06:30:41.433Z,99392.25
2022-09-12T06:43:16.094Z,99349.41
2022-09-12T07:02:27.188Z,99302.81
2022-09-12T07:08:32.624Z,99385.78
2022-09-12T07:21:02.531Z,99410.38
2022-09-12T07:27:04.494Z,99375.59
2022-09-12T07:33:17.028Z,99267.72
2022-09-12T07:39:22.869Z,99416.53
2022-09-12T07:45:28.430Z,99362.47
2022-09-12T07:51:31.667Z,99387.97
2022-09-12T08:03:58.261Z,99406.56
2022-09-12T08:10:02.674Z,99375.09
2022-09-12T08:16:07.471Z,99431.25
2022-09-12T08:22:16.894Z,99324.22
2022-09-12T08:28:22.827Z,99369.88
2022-09-12T08:48:39.067Z,99362.66
2022-09-12T08:54:48.981Z,99372.69
2022-09-12T09:01:17.083Z,99419.53
2022-09-12T09:07:50.951Z,99408.16
2022-09-12T09:14:29.412Z,99409.25
2022-09-12T09:28:07.343Z,99391.97
2022-09-12T09:34:31.368Z,99327.41
2022-09-12T09:40:57.273Z,99348.81
2022-09-12T09:47:04.783Z,99264.00
2022-09-12T09:53:23.497Z,99279.31
2022-09-12T09:59:42.954Z,99273.63
2022-09-12T10:06:02.337Z,99279.88
2022-09-12T10:12:40.826Z,99417.69
2022-09-12T10:18:44.060Z,99434.34
2022-09-12T10:25:02.267Z,99429.56
2022-09-12T10:31:29.880Z,99284.34
2022-09-12T10:37:53.865Z,99380.19
2022-09-12T10:50:43.475Z,99263.88
2022-09-12T10:57:14.660Z,99446.03
2022-09-12T11:03:40.942Z,99457.97
2022-09-12T11:10:02.614Z,99391.09
2022-09-12T11:16:17.277Z,99449.69
2022-09-12T11:22:37.098Z,99459.38
2022-09-12T11:29:14.217Z,99450.91
2022-09-12T11:35:17.674Z,99449.63
2022-09-12T11:47:52.529Z,99424.34
2022-09-12T11:54:21.257Z,99438.69
2022-09-12T12:00:36.481Z,99411.25
2022-09-12T12:06:54.209Z,99453.47
2022-09-12T12:12:58.366Z,99464.91
2022-09-12T12:19:17.774Z,99459.59
2022-09-12T12:25:22.924Z,99460.25
2022-09-12T12:31:37.616Z,99458.50
2022-09-12T12:37:40.380Z,99460.19
2022-09-12T12:43:45.902Z,99465.22
2022-09-12T12:50:06.464Z,99461.22
2022-09-12T12:56:30.571Z,99457.50
2022-09-12T13:02:44.413Z,99424.28
2022-09-12T13:09:01.447Z,99465.56
2022-09-12T13:15:54.456Z,99411.97
2022-09-12T13:22:09.414Z,99466.56
2022-09-12T13:28:11.446Z,99474.63
2022-09-12T13:34:21.101Z,99469.66
2022-09-12T13:40:48.732Z,99479.91
2022-09-12T13:46:53.311Z,99480.66
2022-09-12T13:53:02.176Z,99393.94
2022-09-12T13:59:12.556Z,99489.53
2022-09-12T14:05:22.707Z,99398.19
2022-09-12T14:11:38.685Z,99479.72
2022-09-12T14:23:58.161Z,99487.25
2022-09-12T14:30:09.165Z,99491.44
2022-09-12T14:36:36.663Z,99479.22
2022-09-12T14:42:41.359Z,99459.59
2022-09-12T14:49:00.287Z,99478.97
2022-09-12T14:55:03.808Z,99499.53
2022-09-12T15:01:08.688Z,99523.06
2022-09-12T15:07:42.908Z,99528.44
2022-09-12T15:13:44.780Z,99528.25
2022-09-12T15:19:46.515Z,99491.72
2022-09-12T15:25:48.368Z,99511.16
2022-09-12T15:31:51.861Z,99532.97
2022-09-12T15:37:53.506Z,99522.75
2022-09-12T15:43:55.174Z,99545.59
2022-09-12T15:49:56.782Z,99461.72
2022-09-12T15:55:58.434Z,99526.19
2022-09-12T16:02:00.266Z,99521.59
2022-09-12T16:08:03.556Z,99549.44
2022-09-12T16:14:05.876Z,99557.22
2022-09-12T16:20:08.255Z,99519.72
2022-09-12T16:26:09.941Z,99494.81
2022-09-12T16:38:29.226Z,99555.31
2022-09-12T16:44:34.721Z,99554.28
2022-09-12T16:50:36.655Z,99525.94
2022-09-12T16:56:39.105Z,99512.13
2022-09-12T18:03:09.700Z,99587.00
2022-09-12T18:09:11.368Z,99593.22
2022-09-12T18:15:13.063Z,99593.44
2022-09-12T18:21:14.679Z,99590.00
2022-09-12T18:27:16.391Z,99595.44
2022-09-12T18:33:21.994Z,99603.28
2022-09-12T19:16:43.719Z,99478.91
2022-09-12T19:48:20.840Z,99487.91
2022-09-12T19:54:28.027Z,99543.44
2022-09-12T20:32:33.471Z,99560.81
2022-09-12T21:43:30.257Z,99462.81
2022-09-12T22:08:53.804Z,99489.03
2022-09-12T22:15:29.339Z,99536.19
2022-09-12T22:21:30.627Z,99537.41
2022-09-12T22:34:04.079Z,99540.25
2022-09-12T22:40:06.883Z,99543.44
2022-09-12T22:46:14.998Z,99479.84
2022-09-12T22:52:26.759Z,99545.31
2022-09-12T22:58:41.897Z,99433.94
2022-09-12T23:51:26.511Z,99504.13
